<?xml version="1.0" encoding="UTF-8" standalone="no" ?><gpx xmlns="http://www.topografix.com/GPX/1/1" xmlns:gpxx="http://www.garmin.com/xmlschemas/GpxExtensions/v3" xmlns:gpxtrkx="http://www.garmin.com/xmlschemas/TrackStatsExtension/v1" xmlns:wptx1="http://www.garmin.com/xmlschemas/WaypointExtension/v1" xmlns:gpxtpx="http://www.garmin.com/xmlschemas/TrackPointExtension/v1" creator="Oregon 600" version="1.1" xmlns:xsi="http://www.w3.org/2001/XMLSchema-instance" xsi:schemaLocation="http://www.topografix.com/GPX/1/1 http://www.topografix.com/GPX/1/1/gpx.xsd http://www.garmin.com/xmlschemas/GpxExtensions/v3 http://www8.garmin.com/xmlschemas/GpxExtensionsv3.xsd http://www.garmin.com/xmlschemas/TrackStatsExtension/v1 http://www8.garmin.com/xmlschemas/TrackStatsExtension.xsd http://www.garmin.com/xmlschemas/WaypointExtension/v1 http://www8.garmin.com/xmlschemas/WaypointExtensionv1.xsd http://www.garmin.com/xmlschemas/TrackPointExtension/v1 http://www.garmin.com/xmlschemas/TrackPointExtensionv1.xsd"><metadata><link href="http://www.garmin.com"><text>Garmin International</text></link><time>2024-03-09T14:15:10Z</time></metadata><trk><name>2024-03-09 15:15:05</name><extensions><gpxx:TrackExtension><gpxx:DisplayColor>Cyan</gpxx:DisplayColor></gpxx:TrackExtension><gpxtrkx:TrackStatsExtension><gpxtrkx:Distance>7387.297</gpxtrkx:Distance></gpxtrkx:TrackStatsExtension></extensions><trkseg><trkpt lat="50.3944698349" lon="10.2633563709"><ele>292.30</ele><time>2024-03-09T12:33:58Z</time></trkpt><trkpt lat="50.3945617843" lon="10.2635333128"><ele>291.84</ele><time>2024-03-09T12:34:10Z</time></trkpt><trkpt lat="50.3947585076" lon="10.2639436908"><ele>290.72</ele><time>2024-03-09T12:34:32Z</time></trkpt><trkpt lat="50.3948988207" lon="10.2643201221"><ele>291.79</ele><time>2024-03-09T12:34:50Z</time></trkpt><trkpt lat="50.3951584920" lon="10.2645400632"><ele>291.90</ele><time>2024-03-09T12:35:11Z</time></trkpt><trkpt lat="50.3954689577" lon="10.2647191007"><ele>290.30</ele><time>2024-03-09T12:35:34Z</time></trkpt><trkpt lat="50.3958158009" lon="10.2649434842"><ele>289.20</ele><time>2024-03-09T12:35:59Z</time></trkpt><trkpt lat="50.3960202355" lon="10.2650140598"><ele>288.33</ele><time>2024-03-09T12:36:15Z</time></trkpt><trkpt lat="50.3962146118" lon="10.2649508603"><ele>281.61</ele><time>2024-03-09T12:36:32Z</time></trkpt><trkpt lat="50.3963863570" lon="10.2648574859"><ele>274.48</ele><time>2024-03-09T12:36:49Z</time></trkpt><trkpt lat="50.3965643048" lon="10.2647383790"><ele>272.18</ele><time>2024-03-09T12:37:03Z</time></trkpt><trkpt lat="50.3968135826" lon="10.2646552306"><ele>275.39</ele><time>2024-03-09T12:37:21Z</time></trkpt><trkpt lat="50.3970828094" lon="10.2646360360"><ele>274.68</ele><time>2024-03-09T12:37:42Z</time></trkpt><trkpt lat="50.3972637746" lon="10.2647683024"><ele>280.84</ele><time>2024-03-09T12:37:52Z</time></trkpt><trkpt lat="50.3972792812" lon="10.2649138961"><ele>280.18</ele><time>2024-03-09T12:38:00Z</time></trkpt><trkpt lat="50.3972774372" lon="10.2649505250"><ele>279.96</ele><time>2024-03-09T12:38:02Z</time></trkpt><trkpt lat="50.3972540516" lon="10.2652818616"><ele>277.65</ele><time>2024-03-09T12:38:18Z</time></trkpt><trkpt lat="50.3972531296" lon="10.2655292954"><ele>273.83</ele><time>2024-03-09T12:38:33Z</time></trkpt><trkpt lat="50.3973287344" lon="10.2658614703"><ele>269.74</ele><time>2024-03-09T12:38:49Z</time></trkpt><trkpt lat="50.3973396309" lon="10.2659037150"><ele>269.65</ele><time>2024-03-09T12:38:51Z</time></trkpt><trkpt lat="50.3974490147" lon="10.2662415057"><ele>271.35</ele><time>2024-03-09T12:39:06Z</time></trkpt><trkpt lat="50.3975346778" lon="10.2665458526"><ele>270.56</ele><time>2024-03-09T12:39:23Z</time></trkpt><trkpt lat="50.3975383658" lon="10.2665636223"><ele>270.76</ele><time>2024-03-09T12:39:24Z</time></trkpt><trkpt lat="50.3975758329" lon="10.2667471021"><ele>271.05</ele><time>2024-03-09T12:39:33Z</time></trkpt><trkpt lat="50.3976120427" lon="10.2672065143"><ele>273.10</ele><time>2024-03-09T12:39:54Z</time></trkpt><trkpt lat="50.3975951113" lon="10.2675567940"><ele>272.35</ele><time>2024-03-09T12:40:11Z</time></trkpt><trkpt lat="50.3975919262" lon="10.2680397592"><ele>272.56</ele><time>2024-03-09T12:40:30Z</time></trkpt><trkpt lat="50.3976748232" lon="10.2684655599"><ele>273.88</ele><time>2024-03-09T12:40:49Z</time></trkpt><trkpt lat="50.3977835365" lon="10.2688298374"><ele>273.73</ele><time>2024-03-09T12:41:07Z</time></trkpt><trkpt lat="50.3979155514" lon="10.2691548038"><ele>272.68</ele><time>2024-03-09T12:41:25Z</time></trkpt><trkpt lat="50.3980646655" lon="10.2695034910"><ele>273.12</ele><time>2024-03-09T12:41:45Z</time></trkpt><trkpt lat="50.3980640788" lon="10.2695138007"><ele>273.54</ele><time>2024-03-09T12:41:48Z</time></trkpt><trkpt lat="50.3980964329" lon="10.2695885673"><ele>274.14</ele><time>2024-03-09T12:41:55Z</time></trkpt><trkpt lat="50.3982890490" lon="10.2699911501"><ele>274.18</ele><time>2024-03-09T12:42:18Z</time></trkpt><trkpt lat="50.3984520771" lon="10.2703273483"><ele>273.78</ele><time>2024-03-09T12:42:37Z</time></trkpt><trkpt lat="50.3986186255" lon="10.2706604451"><ele>272.33</ele><time>2024-03-09T12:42:56Z</time></trkpt><trkpt lat="50.3987788875" lon="10.2709842380"><ele>269.89</ele><time>2024-03-09T12:43:14Z</time></trkpt><trkpt lat="50.3989505488" lon="10.2713410556"><ele>269.09</ele><time>2024-03-09T12:43:33Z</time></trkpt><trkpt lat="50.3991379682" lon="10.2717447281"><ele>268.85</ele><time>2024-03-09T12:43:55Z</time></trkpt><trkpt lat="50.3993544728" lon="10.2722210716"><ele>266.77</ele><time>2024-03-09T12:44:21Z</time></trkpt><trkpt lat="50.3995211888" lon="10.2725872770"><ele>265.50</ele><time>2024-03-09T12:44:41Z</time></trkpt><trkpt lat="50.3997125477" lon="10.2729989961"><ele>263.89</ele><time>2024-03-09T12:45:04Z</time></trkpt><trkpt lat="50.3998755757" lon="10.2733379602"><ele>262.82</ele><time>2024-03-09T12:45:23Z</time></trkpt><trkpt lat="50.4000847880" lon="10.2737833746"><ele>261.57</ele><time>2024-03-09T12:45:47Z</time></trkpt><trkpt lat="50.4002271965" lon="10.2740480751"><ele>260.58</ele><time>2024-03-09T12:46:02Z</time></trkpt><trkpt lat="50.4003182240" lon="10.2739909105"><ele>261.35</ele><time>2024-03-09T12:46:10Z</time></trkpt><trkpt lat="50.4003696889" lon="10.2735956199"><ele>263.81</ele><time>2024-03-09T12:46:28Z</time></trkpt><trkpt lat="50.4003918171" lon="10.2732233796"><ele>265.54</ele><time>2024-03-09T12:46:44Z</time></trkpt><trkpt lat="50.4004398454" lon="10.2728149295"><ele>266.24</ele><time>2024-03-09T12:47:03Z</time></trkpt><trkpt lat="50.4004791565" lon="10.2724738698"><ele>266.57</ele><time>2024-03-09T12:47:19Z</time></trkpt><trkpt lat="50.4005320463" lon="10.2721019648"><ele>264.47</ele><time>2024-03-09T12:47:36Z</time></trkpt><trkpt lat="50.4005732853" lon="10.2717673592"><ele>263.88</ele><time>2024-03-09T12:47:52Z</time></trkpt><trkpt lat="50.4006233253" lon="10.2714483440"><ele>264.59</ele><time>2024-03-09T12:48:08Z</time></trkpt><trkpt lat="50.4006494768" lon="10.2711512893"><ele>265.71</ele><time>2024-03-09T12:48:21Z</time></trkpt><trkpt lat="50.4006387480" lon="10.2708504628"><ele>264.68</ele><time>2024-03-09T12:48:36Z</time></trkpt><trkpt lat="50.4006959125" lon="10.2705904562"><ele>266.10</ele><time>2024-03-09T12:48:51Z</time></trkpt><trkpt lat="50.4008410871" lon="10.2704973333"><ele>266.39</ele><time>2024-03-09T12:49:05Z</time></trkpt><trkpt lat="50.4010463599" lon="10.2704405040"><ele>270.41</ele><time>2024-03-09T12:49:19Z</time></trkpt><trkpt lat="50.4011261556" lon="10.2704482991"><ele>270.40</ele><time>2024-03-09T12:49:26Z</time></trkpt><trkpt lat="50.4013274889" lon="10.2704432700"><ele>271.86</ele><time>2024-03-09T12:49:42Z</time></trkpt><trkpt lat="50.4013828095" lon="10.2704271767"><ele>270.83</ele><time>2024-03-09T12:49:47Z</time></trkpt><trkpt lat="50.4014397226" lon="10.2703889553"><ele>269.52</ele><time>2024-03-09T12:49:52Z</time></trkpt><trkpt lat="50.4016444925" lon="10.2702607121"><ele>266.59</ele><time>2024-03-09T12:50:11Z</time></trkpt><trkpt lat="50.4018153995" lon="10.2701132745"><ele>267.24</ele><time>2024-03-09T12:50:27Z</time></trkpt><trkpt lat="50.4018666968" lon="10.2698253561"><ele>268.57</ele><time>2024-03-09T12:50:41Z</time></trkpt><trkpt lat="50.4018738214" lon="10.2694671974"><ele>270.24</ele><time>2024-03-09T12:50:56Z</time></trkpt><trkpt lat="50.4018663615" lon="10.2691335976"><ele>272.88</ele><time>2024-03-09T12:51:11Z</time></trkpt><trkpt lat="50.4018752463" lon="10.2690267283"><ele>273.64</ele><time>2024-03-09T12:51:16Z</time></trkpt><trkpt lat="50.4019242804" lon="10.2687493712"><ele>275.90</ele><time>2024-03-09T12:51:33Z</time></trkpt><trkpt lat="50.4019176587" lon="10.2687029354"><ele>276.61</ele><time>2024-03-09T12:51:36Z</time></trkpt><trkpt lat="50.4018967878" lon="10.2684943937"><ele>276.72</ele><time>2024-03-09T12:51:45Z</time></trkpt><trkpt lat="50.4018870648" lon="10.2683166135"><ele>277.45</ele><time>2024-03-09T12:51:53Z</time></trkpt><trkpt lat="50.4019217659" lon="10.2680079080"><ele>279.04</ele><time>2024-03-09T12:52:11Z</time></trkpt><trkpt lat="50.4019497614" lon="10.2676479053"><ele>277.03</ele><time>2024-03-09T12:52:30Z</time></trkpt><trkpt lat="50.4019640107" lon="10.2672064304"><ele>277.97</ele><time>2024-03-09T12:52:55Z</time></trkpt><trkpt lat="50.4019699618" lon="10.2668277360"><ele>279.42</ele><time>2024-03-09T12:53:11Z</time></trkpt><trkpt lat="50.4020090215" lon="10.2665075473"><ele>280.28</ele><time>2024-03-09T12:53:31Z</time></trkpt><trkpt lat="50.4020594805" lon="10.2661011089"><ele>280.60</ele><time>2024-03-09T12:53:51Z</time></trkpt><trkpt lat="50.4020729754" lon="10.2659804095"><ele>280.46</ele><time>2024-03-09T12:53:59Z</time></trkpt><trkpt lat="50.4023536853" lon="10.2635553572"><ele>292.06</ele><time>2024-03-09T12:58:06Z</time></trkpt><trkpt lat="50.4024160467" lon="10.2634443808"><ele>289.91</ele><time>2024-03-09T12:58:13Z</time></trkpt><trkpt lat="50.4025602154" lon="10.2633527666"><ele>287.87</ele><time>2024-03-09T12:58:26Z</time></trkpt><trkpt lat="50.4027277697" lon="10.2633158024"><ele>285.55</ele><time>2024-03-09T12:58:42Z</time></trkpt><trkpt lat="50.4028607067" lon="10.2633961011"><ele>280.69</ele><time>2024-03-09T12:58:58Z</time></trkpt><trkpt lat="50.4030456953" lon="10.2635191474"><ele>277.89</ele><time>2024-03-09T12:59:16Z</time></trkpt><trkpt lat="50.4032890219" lon="10.2636263520"><ele>277.24</ele><time>2024-03-09T12:59:35Z</time></trkpt><trkpt lat="50.4035031796" lon="10.2637405973"><ele>278.33</ele><time>2024-03-09T12:59:51Z</time></trkpt><trkpt lat="50.4035421554" lon="10.2637518290"><ele>279.46</ele><time>2024-03-09T12:59:54Z</time></trkpt><trkpt lat="50.4035947099" lon="10.2637494821"><ele>280.21</ele><time>2024-03-09T12:59:58Z</time></trkpt><trkpt lat="50.4038649425" lon="10.2637825068"><ele>282.52</ele><time>2024-03-09T13:00:17Z</time></trkpt><trkpt lat="50.4041093588" lon="10.2638175432"><ele>284.20</ele><time>2024-03-09T13:00:34Z</time></trkpt><trkpt lat="50.4043137934" lon="10.2638808265"><ele>286.39</ele><time>2024-03-09T13:00:52Z</time></trkpt><trkpt lat="50.4045530967" lon="10.2639552578"><ele>287.99</ele><time>2024-03-09T13:01:09Z</time></trkpt><trkpt lat="50.4047780670" lon="10.2640451118"><ele>289.61</ele><time>2024-03-09T13:01:26Z</time></trkpt><trkpt lat="50.4049576912" lon="10.2640834171"><ele>288.47</ele><time>2024-03-09T13:01:40Z</time></trkpt><trkpt lat="50.4051849246" lon="10.2640827466"><ele>286.31</ele><time>2024-03-09T13:01:57Z</time></trkpt><trkpt lat="50.4053735174" lon="10.2640973311"><ele>285.37</ele><time>2024-03-09T13:02:13Z</time></trkpt><trkpt lat="50.4056380503" lon="10.2641261648"><ele>284.10</ele><time>2024-03-09T13:02:32Z</time></trkpt><trkpt lat="50.4058826342" lon="10.2640277613"><ele>283.50</ele><time>2024-03-09T13:02:50Z</time></trkpt><trkpt lat="50.4059205204" lon="10.2639405895"><ele>284.97</ele><time>2024-03-09T13:02:53Z</time></trkpt><trkpt lat="50.4059698898" lon="10.2638212312"><ele>288.27</ele><time>2024-03-09T13:02:57Z</time></trkpt><trkpt lat="50.4059936106" lon="10.2636676747"><ele>292.62</ele><time>2024-03-09T13:03:08Z</time></trkpt><trkpt lat="50.4059723206" lon="10.2635443769"><ele>294.29</ele><time>2024-03-09T13:03:15Z</time></trkpt><trkpt lat="50.4059039243" lon="10.2632443886"><ele>299.21</ele><time>2024-03-09T13:03:31Z</time></trkpt><trkpt lat="50.4058285709" lon="10.2629749943"><ele>304.76</ele><time>2024-03-09T13:03:47Z</time></trkpt><trkpt lat="50.4057357833" lon="10.2627247106"><ele>308.05</ele><time>2024-03-09T13:04:02Z</time></trkpt><trkpt lat="50.4056320991" lon="10.2624569926"><ele>312.19</ele><time>2024-03-09T13:04:17Z</time></trkpt><trkpt lat="50.4055153392" lon="10.2622221317"><ele>313.57</ele><time>2024-03-09T13:04:31Z</time></trkpt><trkpt lat="50.4054217134" lon="10.2619992569"><ele>315.68</ele><time>2024-03-09T13:04:45Z</time></trkpt><trkpt lat="50.4053246509" lon="10.2617773879"><ele>318.14</ele><time>2024-03-09T13:04:59Z</time></trkpt><trkpt lat="50.4052952304" lon="10.2616916411"><ele>318.82</ele><time>2024-03-09T13:05:04Z</time></trkpt><trkpt lat="50.4052680731" lon="10.2615664992"><ele>319.61</ele><time>2024-03-09T13:05:11Z</time></trkpt><trkpt lat="50.4052208830" lon="10.2611945942"><ele>320.13</ele><time>2024-03-09T13:05:31Z</time></trkpt><trkpt lat="50.4052315280" lon="10.2608716395"><ele>320.26</ele><time>2024-03-09T13:05:46Z</time></trkpt><trkpt lat="50.4052334558" lon="10.2608324960"><ele>320.17</ele><time>2024-03-09T13:05:48Z</time></trkpt><trkpt lat="50.4052384850" lon="10.2607321646"><ele>320.22</ele><time>2024-03-09T13:05:53Z</time></trkpt><trkpt lat="50.4052570928" lon="10.2604204416"><ele>320.86</ele><time>2024-03-09T13:06:09Z</time></trkpt><trkpt lat="50.4052749462" lon="10.2602057811"><ele>321.25</ele><time>2024-03-09T13:06:20Z</time></trkpt><trkpt lat="50.4053119104" lon="10.2599718422"><ele>322.11</ele><time>2024-03-09T13:06:32Z</time></trkpt><trkpt lat="50.4053391516" lon="10.2596511506"><ele>324.20</ele><time>2024-03-09T13:06:47Z</time></trkpt><trkpt lat="50.4053329490" lon="10.2593623102"><ele>324.86</ele><time>2024-03-09T13:07:00Z</time></trkpt><trkpt lat="50.4053383972" lon="10.2592644934"><ele>324.99</ele><time>2024-03-09T13:07:05Z</time></trkpt><trkpt lat="50.4053471144" lon="10.2591749746"><ele>325.21</ele><time>2024-03-09T13:07:09Z</time></trkpt><trkpt lat="50.4053429235" lon="10.2590851206"><ele>325.15</ele><time>2024-03-09T13:07:13Z</time></trkpt><trkpt lat="50.4052915424" lon="10.2587739844"><ele>326.56</ele><time>2024-03-09T13:07:29Z</time></trkpt><trkpt lat="50.4052886926" lon="10.2587569691"><ele>326.41</ele><time>2024-03-09T13:07:30Z</time></trkpt><trkpt lat="50.4052564222" lon="10.2586774249"><ele>326.80</ele><time>2024-03-09T13:07:35Z</time></trkpt><trkpt lat="50.4051084816" lon="10.2586322464"><ele>327.45</ele><time>2024-03-09T13:07:49Z</time></trkpt><trkpt lat="50.4050760437" lon="10.2586661093"><ele>325.69</ele><time>2024-03-09T13:07:53Z</time></trkpt><trkpt lat="50.4050015286" lon="10.2589068376"><ele>319.48</ele><time>2024-03-09T13:08:06Z</time></trkpt><trkpt lat="50.4048922285" lon="10.2591504995"><ele>314.99</ele><time>2024-03-09T13:08:21Z</time></trkpt><trkpt lat="50.4047468863" lon="10.2594297845"><ele>313.94</ele><time>2024-03-09T13:08:38Z</time></trkpt><trkpt lat="50.4046072438" lon="10.2596882824"><ele>313.71</ele><time>2024-03-09T13:08:54Z</time></trkpt><trkpt lat="50.4044331517" lon="10.2600126620"><ele>313.20</ele><time>2024-03-09T13:09:14Z</time></trkpt><trkpt lat="50.4042819422" lon="10.2602784522"><ele>310.96</ele><time>2024-03-09T13:09:32Z</time></trkpt><trkpt lat="50.4041699599" lon="10.2604589146"><ele>311.22</ele><time>2024-03-09T13:09:45Z</time></trkpt><trkpt lat="50.4039957002" lon="10.2606894169"><ele>309.79</ele><time>2024-03-09T13:10:01Z</time></trkpt><trkpt lat="50.4037558101" lon="10.2609190810"><ele>307.74</ele><time>2024-03-09T13:10:22Z</time></trkpt><trkpt lat="50.4035108071" lon="10.2610656805"><ele>309.35</ele><time>2024-03-09T13:10:41Z</time></trkpt><trkpt lat="50.4032931291" lon="10.2611569595"><ele>308.82</ele><time>2024-03-09T13:10:58Z</time></trkpt><trkpt lat="50.4030420911" lon="10.2612386830"><ele>305.17</ele><time>2024-03-09T13:11:16Z</time></trkpt><trkpt lat="50.4028521571" lon="10.2612717077"><ele>300.96</ele><time>2024-03-09T13:11:32Z</time></trkpt><trkpt lat="50.4026165418" lon="10.2613007091"><ele>296.39</ele><time>2024-03-09T13:11:48Z</time></trkpt><trkpt lat="50.4024057370" lon="10.2613197360"><ele>293.59</ele><time>2024-03-09T13:12:03Z</time></trkpt><trkpt lat="50.4022464808" lon="10.2613929939"><ele>289.73</ele><time>2024-03-09T13:12:17Z</time></trkpt><trkpt lat="50.4020945169" lon="10.2614349034"><ele>284.75</ele><time>2024-03-09T13:12:30Z</time></trkpt><trkpt lat="50.4019625019" lon="10.2615058143"><ele>280.62</ele><time>2024-03-09T13:12:42Z</time></trkpt><trkpt lat="50.4018457420" lon="10.2616084926"><ele>276.47</ele><time>2024-03-09T13:12:55Z</time></trkpt><trkpt lat="50.4016787745" lon="10.2618239913"><ele>272.46</ele><time>2024-03-09T13:13:09Z</time></trkpt><trkpt lat="50.4015662894" lon="10.2619815711"><ele>270.14</ele><time>2024-03-09T13:13:21Z</time></trkpt><trkpt lat="50.4013818037" lon="10.2621648833"><ele>269.11</ele><time>2024-03-09T13:13:37Z</time></trkpt><trkpt lat="50.4011988267" lon="10.2622906119"><ele>271.20</ele><time>2024-03-09T13:13:53Z</time></trkpt><trkpt lat="50.4009632114" lon="10.2623247262"><ele>267.73</ele><time>2024-03-09T13:14:10Z</time></trkpt><trkpt lat="50.4007505625" lon="10.2622406557"><ele>266.98</ele><time>2024-03-09T13:14:24Z</time></trkpt><trkpt lat="50.4005679209" lon="10.2621601056"><ele>266.22</ele><time>2024-03-09T13:14:38Z</time></trkpt><trkpt lat="50.4003911465" lon="10.2620963193"><ele>265.08</ele><time>2024-03-09T13:14:51Z</time></trkpt><trkpt lat="50.4003251810" lon="10.2620633785"><ele>265.51</ele><time>2024-03-09T13:14:56Z</time></trkpt><trkpt lat="50.4000976961" lon="10.2619579341"><ele>262.96</ele><time>2024-03-09T13:15:14Z</time></trkpt><trkpt lat="50.3998701274" lon="10.2618913818"><ele>261.76</ele><time>2024-03-09T13:15:30Z</time></trkpt><trkpt lat="50.3996577300" lon="10.2618753724"><ele>263.57</ele><time>2024-03-09T13:15:46Z</time></trkpt><trkpt lat="50.3994325083" lon="10.2618628833"><ele>265.79</ele><time>2024-03-09T13:16:03Z</time></trkpt><trkpt lat="50.3992395569" lon="10.2618564293"><ele>265.44</ele><time>2024-03-09T13:16:18Z</time></trkpt><trkpt lat="50.3990521375" lon="10.2618438564"><ele>268.88</ele><time>2024-03-09T13:16:33Z</time></trkpt><trkpt lat="50.3989885189" lon="10.2618472930"><ele>268.93</ele><time>2024-03-09T13:16:38Z</time></trkpt><trkpt lat="50.3987564240" lon="10.2618797310"><ele>266.78</ele><time>2024-03-09T13:16:55Z</time></trkpt><trkpt lat="50.3985565156" lon="10.2618630510"><ele>267.19</ele><time>2024-03-09T13:17:12Z</time></trkpt><trkpt lat="50.3984411806" lon="10.2618770488"><ele>267.10</ele><time>2024-03-09T13:17:21Z</time></trkpt><trkpt lat="50.3982427809" lon="10.2618069761"><ele>266.43</ele><time>2024-03-09T13:17:36Z</time></trkpt><trkpt lat="50.3980252706" lon="10.2616416849"><ele>269.66</ele><time>2024-03-09T13:17:51Z</time></trkpt><trkpt lat="50.3978677746" lon="10.2613537665"><ele>280.23</ele><time>2024-03-09T13:18:08Z</time></trkpt><trkpt lat="50.3977952711" lon="10.2610885631"><ele>286.41</ele><time>2024-03-09T13:18:23Z</time></trkpt><trkpt lat="50.3977602348" lon="10.2608599886"><ele>290.18</ele><time>2024-03-09T13:18:37Z</time></trkpt><trkpt lat="50.3977586422" lon="10.2608088590"><ele>290.25</ele><time>2024-03-09T13:18:40Z</time></trkpt><trkpt lat="50.3978036530" lon="10.2604914363"><ele>291.31</ele><time>2024-03-09T13:18:57Z</time></trkpt><trkpt lat="50.3978141304" lon="10.2604626026"><ele>291.38</ele><time>2024-03-09T13:18:59Z</time></trkpt><trkpt lat="50.3979994543" lon="10.2603004128"><ele>293.03</ele><time>2024-03-09T13:19:16Z</time></trkpt><trkpt lat="50.3981657512" lon="10.2603459265"><ele>290.24</ele><time>2024-03-09T13:19:31Z</time></trkpt><trkpt lat="50.3983884584" lon="10.2603431605"><ele>285.54</ele><time>2024-03-09T13:19:49Z</time></trkpt><trkpt lat="50.3984358162" lon="10.2603670489"><ele>284.88</ele><time>2024-03-09T13:19:55Z</time></trkpt><trkpt lat="50.3987114131" lon="10.2603557333"><ele>290.44</ele><time>2024-03-09T13:21:12Z</time></trkpt><trkpt lat="50.3988953121" lon="10.2603165060"><ele>289.31</ele><time>2024-03-09T13:21:27Z</time></trkpt><trkpt lat="50.3990973998" lon="10.2603206132"><ele>288.84</ele><time>2024-03-09T13:21:41Z</time></trkpt><trkpt lat="50.3992946260" lon="10.2603202779"><ele>288.53</ele><time>2024-03-09T13:21:55Z</time></trkpt><trkpt lat="50.3994341847" lon="10.2603129018"><ele>289.53</ele><time>2024-03-09T13:22:05Z</time></trkpt><trkpt lat="50.3996594064" lon="10.2603269834"><ele>289.28</ele><time>2024-03-09T13:22:22Z</time></trkpt><trkpt lat="50.3998859692" lon="10.2603328507"><ele>290.84</ele><time>2024-03-09T13:22:38Z</time></trkpt><trkpt lat="50.4000946786" lon="10.2603473514"><ele>292.20</ele><time>2024-03-09T13:22:54Z</time></trkpt><trkpt lat="50.4002952576" lon="10.2603453398"><ele>291.34</ele><time>2024-03-09T13:23:09Z</time></trkpt><trkpt lat="50.4004620574" lon="10.2603873331"><ele>289.11</ele><time>2024-03-09T13:23:23Z</time></trkpt><trkpt lat="50.4005828407" lon="10.2604667097"><ele>282.69</ele><time>2024-03-09T13:23:38Z</time></trkpt><trkpt lat="50.4006382450" lon="10.2605016623"><ele>280.28</ele><time>2024-03-09T13:23:44Z</time></trkpt><trkpt lat="50.4007361457" lon="10.2602305915"><ele>274.64</ele><time>2024-03-09T13:24:02Z</time></trkpt><trkpt lat="50.4007230699" lon="10.2597766276"><ele>270.20</ele><time>2024-03-09T13:24:25Z</time></trkpt><trkpt lat="50.4007008579" lon="10.2593754698"><ele>268.64</ele><time>2024-03-09T13:24:46Z</time></trkpt><trkpt lat="50.4006293602" lon="10.2588462364"><ele>270.05</ele><time>2024-03-09T13:25:07Z</time></trkpt><trkpt lat="50.4006328806" lon="10.2587846294"><ele>270.45</ele><time>2024-03-09T13:25:09Z</time></trkpt><trkpt lat="50.4005317111" lon="10.2584932745"><ele>272.54</ele><time>2024-03-09T13:25:25Z</time></trkpt><trkpt lat="50.4004701879" lon="10.2581597585"><ele>276.95</ele><time>2024-03-09T13:25:43Z</time></trkpt><trkpt lat="50.4004037194" lon="10.2577535715"><ele>280.97</ele><time>2024-03-09T13:26:04Z</time></trkpt><trkpt lat="50.4003021307" lon="10.2574130986"><ele>283.50</ele><time>2024-03-09T13:26:24Z</time></trkpt><trkpt lat="50.4002904799" lon="10.2573906351"><ele>283.55</ele><time>2024-03-09T13:26:26Z</time></trkpt><trkpt lat="50.4001468141" lon="10.2571293712"><ele>287.28</ele><time>2024-03-09T13:26:44Z</time></trkpt><trkpt lat="50.4001315590" lon="10.2570819296"><ele>288.71</ele><time>2024-03-09T13:26:47Z</time></trkpt><trkpt lat="50.4002081696" lon="10.2569915727"><ele>291.92</ele><time>2024-03-09T13:26:56Z</time></trkpt><trkpt lat="50.4003760591" lon="10.2568650059"><ele>294.69</ele><time>2024-03-09T13:27:12Z</time></trkpt><trkpt lat="50.4004230816" lon="10.2568224259"><ele>295.03</ele><time>2024-03-09T13:27:17Z</time></trkpt><trkpt lat="50.4004725348" lon="10.2567787562"><ele>295.63</ele><time>2024-03-09T13:27:21Z</time></trkpt><trkpt lat="50.4006088246" lon="10.2566450648"><ele>297.09</ele><time>2024-03-09T13:27:34Z</time></trkpt><trkpt lat="50.4007769655" lon="10.2564997226"><ele>298.04</ele><time>2024-03-09T13:27:50Z</time></trkpt><trkpt lat="50.4009247385" lon="10.2563565597"><ele>301.67</ele><time>2024-03-09T13:28:04Z</time></trkpt><trkpt lat="50.4010884371" lon="10.2561810426"><ele>304.10</ele><time>2024-03-09T13:28:20Z</time></trkpt><trkpt lat="50.4012538958" lon="10.2560491115"><ele>306.74</ele><time>2024-03-09T13:28:35Z</time></trkpt><trkpt lat="50.4013454262" lon="10.2559928689"><ele>307.97</ele><time>2024-03-09T13:28:43Z</time></trkpt><trkpt lat="50.4013818037" lon="10.2559245564"><ele>308.20</ele><time>2024-03-09T13:28:48Z</time></trkpt><trkpt lat="50.4014973901" lon="10.2557263244"><ele>309.90</ele><time>2024-03-09T13:29:03Z</time></trkpt><trkpt lat="50.4015625175" lon="10.2556042001"><ele>310.68</ele><time>2024-03-09T13:29:12Z</time></trkpt><trkpt lat="50.4018086940" lon="10.2556151804"><ele>312.68</ele><time>2024-03-09T13:29:32Z</time></trkpt><trkpt lat="50.4020036571" lon="10.2556852531"><ele>314.31</ele><time>2024-03-09T13:29:49Z</time></trkpt><trkpt lat="50.4021942616" lon="10.2557988279"><ele>316.31</ele><time>2024-03-09T13:30:06Z</time></trkpt><trkpt lat="50.4024037253" lon="10.2559456788"><ele>317.36</ele><time>2024-03-09T13:30:24Z</time></trkpt><trkpt lat="50.4025882948" lon="10.2560914401"><ele>316.54</ele><time>2024-03-09T13:30:42Z</time></trkpt><trkpt lat="50.4027462937" lon="10.2562126424"><ele>315.10</ele><time>2024-03-09T13:30:57Z</time></trkpt><trkpt lat="50.4029499739" lon="10.2563467529"><ele>311.99</ele><time>2024-03-09T13:31:14Z</time></trkpt><trkpt lat="50.4031288438" lon="10.2564816177"><ele>309.13</ele><time>2024-03-09T13:31:31Z</time></trkpt><trkpt lat="50.4031943064" lon="10.2565269638"><ele>307.75</ele><time>2024-03-09T13:31:38Z</time></trkpt><trkpt lat="50.4033171013" lon="10.2566089388"><ele>304.51</ele><time>2024-03-09T13:31:50Z</time></trkpt><trkpt lat="50.4044934176" lon="10.2575405035"><ele>292.52</ele><time>2024-03-09T13:33:48Z</time></trkpt><trkpt lat="50.4046881292" lon="10.2576504741"><ele>295.58</ele><time>2024-03-09T13:34:00Z</time></trkpt><trkpt lat="50.4049073998" lon="10.2576441038"><ele>302.86</ele><time>2024-03-09T13:34:14Z</time></trkpt><trkpt lat="50.4050833359" lon="10.2575646434"><ele>306.86</ele><time>2024-03-09T13:34:29Z</time></trkpt><trkpt lat="50.4051762074" lon="10.2575223148"><ele>309.62</ele><time>2024-03-09T13:34:38Z</time></trkpt><trkpt lat="50.4052332882" lon="10.2575210575"><ele>311.30</ele><time>2024-03-09T13:34:42Z</time></trkpt><trkpt lat="50.4053559992" lon="10.2573922276"><ele>312.25</ele><time>2024-03-09T13:34:56Z</time></trkpt><trkpt lat="50.4053708352" lon="10.2572281100"><ele>310.85</ele><time>2024-03-09T13:35:03Z</time></trkpt><trkpt lat="50.4054021835" lon="10.2567362599"><ele>309.11</ele><time>2024-03-09T13:35:28Z</time></trkpt><trkpt lat="50.4054286703" lon="10.2565081883"><ele>307.26</ele><time>2024-03-09T13:35:41Z</time></trkpt><trkpt lat="50.4055632837" lon="10.2559758537"><ele>309.24</ele><time>2024-03-09T13:36:09Z</time></trkpt><trkpt lat="50.4056962207" lon="10.2559034340"><ele>313.25</ele><time>2024-03-09T13:36:23Z</time></trkpt><trkpt lat="50.4058857355" lon="10.2558391448"><ele>312.38</ele><time>2024-03-09T13:36:39Z</time></trkpt><trkpt lat="50.4059675429" lon="10.2558160108"><ele>313.59</ele><time>2024-03-09T13:36:45Z</time></trkpt><trkpt lat="50.4060231149" lon="10.2558125742"><ele>316.67</ele><time>2024-03-09T13:36:52Z</time></trkpt><trkpt lat="50.4060679581" lon="10.2557972353"><ele>317.31</ele><time>2024-03-09T13:36:56Z</time></trkpt><trkpt lat="50.4061205965" lon="10.2557837404"><ele>318.19</ele><time>2024-03-09T13:37:00Z</time></trkpt><trkpt lat="50.4063324910" lon="10.2556721773"><ele>322.37</ele><time>2024-03-09T13:37:18Z</time></trkpt><trkpt lat="50.4064457305" lon="10.2555058803"><ele>322.03</ele><time>2024-03-09T13:37:31Z</time></trkpt><trkpt lat="50.4065497499" lon="10.2553367335"><ele>323.68</ele><time>2024-03-09T13:37:45Z</time></trkpt><trkpt lat="50.4066490754" lon="10.2551421896"><ele>325.29</ele><time>2024-03-09T13:38:00Z</time></trkpt><trkpt lat="50.4066574574" lon="10.2550663333"><ele>325.10</ele><time>2024-03-09T13:38:06Z</time></trkpt><trkpt lat="50.4066800885" lon="10.2539986465"><ele>327.09</ele><time>2024-03-09T13:39:13Z</time></trkpt><trkpt lat="50.4066800885" lon="10.2536454331"><ele>327.42</ele><time>2024-03-09T13:39:32Z</time></trkpt><trkpt lat="50.4066742212" lon="10.2535743546"><ele>328.42</ele><time>2024-03-09T13:39:38Z</time></trkpt><trkpt lat="50.4066618998" lon="10.2520535421"><ele>346.26</ele><time>2024-03-09T13:42:19Z</time></trkpt><trkpt lat="50.4065374285" lon="10.2518519573"><ele>345.43</ele><time>2024-03-09T13:42:33Z</time></trkpt><trkpt lat="50.4063324910" lon="10.2516779490"><ele>342.55</ele><time>2024-03-09T13:42:50Z</time></trkpt><trkpt lat="50.4062466603" lon="10.2516046073"><ele>342.57</ele><time>2024-03-09T13:42:57Z</time></trkpt><trkpt lat="50.4062121268" lon="10.2515757736"><ele>342.20</ele><time>2024-03-09T13:43:00Z</time></trkpt><trkpt lat="50.4060805310" lon="10.2514698263"><ele>341.99</ele><time>2024-03-09T13:43:11Z</time></trkpt><trkpt lat="50.4059484322" lon="10.2513685729"><ele>339.65</ele><time>2024-03-09T13:43:25Z</time></trkpt><trkpt lat="50.4059365299" lon="10.2513673156"><ele>339.38</ele><time>2024-03-09T13:43:26Z</time></trkpt><trkpt lat="50.4056725837" lon="10.2512913756"><ele>336.13</ele><time>2024-03-09T13:43:47Z</time></trkpt><trkpt lat="50.4055754375" lon="10.2512782160"><ele>336.01</ele><time>2024-03-09T13:43:54Z</time></trkpt><trkpt lat="50.4054888524" lon="10.2512368932"><ele>336.02</ele><time>2024-03-09T13:44:04Z</time></trkpt><trkpt lat="50.4051198810" lon="10.2502690349"><ele>348.41</ele><time>2024-03-09T13:45:45Z</time></trkpt><trkpt lat="50.4049712699" lon="10.2500879858"><ele>352.01</ele><time>2024-03-09T13:46:01Z</time></trkpt><trkpt lat="50.4047927354" lon="10.2499630954"><ele>356.01</ele><time>2024-03-09T13:46:18Z</time></trkpt><trkpt lat="50.4046458006" lon="10.2499023266"><ele>358.82</ele><time>2024-03-09T13:46:35Z</time></trkpt><trkpt lat="50.4044458084" lon="10.2499138098"><ele>360.50</ele><time>2024-03-09T13:46:56Z</time></trkpt><trkpt lat="50.4042019788" lon="10.2499184199"><ele>361.81</ele><time>2024-03-09T13:47:17Z</time></trkpt><trkpt lat="50.4040311556" lon="10.2499367762"><ele>360.63</ele><time>2024-03-09T13:47:32Z</time></trkpt><trkpt lat="50.4039119650" lon="10.2501360141"><ele>356.26</ele><time>2024-03-09T13:47:49Z</time></trkpt><trkpt lat="50.4039250407" lon="10.2501635067"><ele>355.92</ele><time>2024-03-09T13:47:52Z</time></trkpt><trkpt lat="50.4038746655" lon="10.2501311526"><ele>360.57</ele><time>2024-03-09T13:48:40Z</time></trkpt><trkpt lat="50.4037880804" lon="10.2500022389"><ele>361.94</ele><time>2024-03-09T13:48:50Z</time></trkpt><trkpt lat="50.4036167543" lon="10.2500176616"><ele>361.80</ele><time>2024-03-09T13:49:06Z</time></trkpt><trkpt lat="50.4035887588" lon="10.2500193380"><ele>361.03</ele><time>2024-03-09T13:49:09Z</time></trkpt><trkpt lat="50.4033647943" lon="10.2500802744"><ele>354.93</ele><time>2024-03-09T13:49:27Z</time></trkpt><trkpt lat="50.4032030236" lon="10.2501225192"><ele>348.98</ele><time>2024-03-09T13:49:40Z</time></trkpt><trkpt lat="50.4030301888" lon="10.2501412109"><ele>343.85</ele><time>2024-03-09T13:49:54Z</time></trkpt><trkpt lat="50.4027871974" lon="10.2501583099"><ele>338.47</ele><time>2024-03-09T13:50:14Z</time></trkpt><trkpt lat="50.4025576171" lon="10.2501807734"><ele>339.23</ele><time>2024-03-09T13:50:31Z</time></trkpt><trkpt lat="50.4023058247" lon="10.2502277121"><ele>339.54</ele><time>2024-03-09T13:50:49Z</time></trkpt><trkpt lat="50.4020330776" lon="10.2502417937"><ele>340.23</ele><time>2024-03-09T13:51:08Z</time></trkpt><trkpt lat="50.4019088577" lon="10.2502472419"><ele>340.03</ele><time>2024-03-09T13:51:18Z</time></trkpt><trkpt lat="50.4016285669" lon="10.2502831165"><ele>335.80</ele><time>2024-03-09T13:51:39Z</time></trkpt><trkpt lat="50.4014396388" lon="10.2502823621"><ele>333.72</ele><time>2024-03-09T13:51:54Z</time></trkpt><trkpt lat="50.4012453463" lon="10.2502760757"><ele>334.80</ele><time>2024-03-09T13:52:08Z</time></trkpt><trkpt lat="50.4012117349" lon="10.2502617426"><ele>334.99</ele><time>2024-03-09T13:52:11Z</time></trkpt><trkpt lat="50.4010839108" lon="10.2502374351"><ele>334.91</ele><time>2024-03-09T13:52:22Z</time></trkpt><trkpt lat="50.4010374751" lon="10.2502393629"><ele>335.37</ele><time>2024-03-09T13:52:25Z</time></trkpt><trkpt lat="50.4008377343" lon="10.2502196655"><ele>337.36</ele><time>2024-03-09T13:52:41Z</time></trkpt><trkpt lat="50.4006064776" lon="10.2501718048"><ele>340.11</ele><time>2024-03-09T13:52:58Z</time></trkpt><trkpt lat="50.4003861174" lon="10.2501536999"><ele>342.26</ele><time>2024-03-09T13:53:15Z</time></trkpt><trkpt lat="50.4002458043" lon="10.2501661889"><ele>344.07</ele><time>2024-03-09T13:53:26Z</time></trkpt><trkpt lat="50.4000261147" lon="10.2501495089"><ele>344.86</ele><time>2024-03-09T13:53:44Z</time></trkpt><trkpt lat="50.3997663595" lon="10.2501770016"><ele>344.82</ele><time>2024-03-09T13:54:03Z</time></trkpt><trkpt lat="50.3995216917" lon="10.2502795123"><ele>342.98</ele><time>2024-03-09T13:54:21Z</time></trkpt><trkpt lat="50.3993007448" lon="10.2503764071"><ele>340.57</ele><time>2024-03-09T13:54:38Z</time></trkpt><trkpt lat="50.3990766965" lon="10.2505349088"><ele>338.48</ele><time>2024-03-09T13:54:58Z</time></trkpt><trkpt lat="50.3988601919" lon="10.2506834362"><ele>334.91</ele><time>2024-03-09T13:55:13Z</time></trkpt><trkpt lat="50.3986478783" lon="10.2507833485"><ele>331.96</ele><time>2024-03-09T13:55:32Z</time></trkpt><trkpt lat="50.3984274343" lon="10.2507908922"><ele>330.62</ele><time>2024-03-09T13:55:48Z</time></trkpt><trkpt lat="50.3982031345" lon="10.2507706080"><ele>331.19</ele><time>2024-03-09T13:56:04Z</time></trkpt><trkpt lat="50.3979986999" lon="10.2507794928"><ele>333.32</ele><time>2024-03-09T13:56:19Z</time></trkpt><trkpt lat="50.3978025634" lon="10.2507297043"><ele>335.86</ele><time>2024-03-09T13:56:35Z</time></trkpt><trkpt lat="50.3976312373" lon="10.2506903093"><ele>337.51</ele><time>2024-03-09T13:56:50Z</time></trkpt><trkpt lat="50.3974481765" lon="10.2506799996"><ele>339.10</ele><time>2024-03-09T13:57:07Z</time></trkpt><trkpt lat="50.3972563986" lon="10.2507872041"><ele>336.72</ele><time>2024-03-09T13:57:25Z</time></trkpt><trkpt lat="50.3970836475" lon="10.2510083187"><ele>338.94</ele><time>2024-03-09T13:57:42Z</time></trkpt><trkpt lat="50.3969393950" lon="10.2513011824"><ele>338.44</ele><time>2024-03-09T13:58:01Z</time></trkpt><trkpt lat="50.3968236409" lon="10.2516202815"><ele>336.19</ele><time>2024-03-09T13:58:20Z</time></trkpt><trkpt lat="50.3967656381" lon="10.2518331818"><ele>333.96</ele><time>2024-03-09T13:58:32Z</time></trkpt><trkpt lat="50.3966781311" lon="10.2521995548"><ele>334.27</ele><time>2024-03-09T13:58:50Z</time></trkpt><trkpt lat="50.3965797275" lon="10.2525503375"><ele>336.18</ele><time>2024-03-09T13:59:06Z</time></trkpt><trkpt lat="50.3964950703" lon="10.2528603002"><ele>336.33</ele><time>2024-03-09T13:59:23Z</time></trkpt><trkpt lat="50.3964408394" lon="10.2531234920"><ele>334.91</ele><time>2024-03-09T13:59:38Z</time></trkpt><trkpt lat="50.3963704314" lon="10.2534153499"><ele>334.13</ele><time>2024-03-09T13:59:55Z</time></trkpt><trkpt lat="50.3962757997" lon="10.2537187748"><ele>334.69</ele><time>2024-03-09T14:00:11Z</time></trkpt><trkpt lat="50.3961855266" lon="10.2540571522"><ele>333.87</ele><time>2024-03-09T14:00:31Z</time></trkpt><trkpt lat="50.3960992768" lon="10.2543694619"><ele>335.30</ele><time>2024-03-09T14:00:47Z</time></trkpt><trkpt lat="50.3960229177" lon="10.2546726353"><ele>335.60</ele><time>2024-03-09T14:01:03Z</time></trkpt><trkpt lat="50.3959076665" lon="10.2549548540"><ele>334.64</ele><time>2024-03-09T14:01:19Z</time></trkpt><trkpt lat="50.3957028966" lon="10.2551413514"><ele>331.91</ele><time>2024-03-09T14:01:37Z</time></trkpt><trkpt lat="50.3955847118" lon="10.2553477138"><ele>328.83</ele><time>2024-03-09T14:01:52Z</time></trkpt><trkpt lat="50.3954906669" lon="10.2556198742"><ele>326.00</ele><time>2024-03-09T14:02:08Z</time></trkpt><trkpt lat="50.3953990526" lon="10.2558689006"><ele>322.83</ele><time>2024-03-09T14:02:22Z</time></trkpt><trkpt lat="50.3953210171" lon="10.2560742572"><ele>321.52</ele><time>2024-03-09T14:02:36Z</time></trkpt><trkpt lat="50.3950467613" lon="10.2566159796"><ele>316.99</ele><time>2024-03-09T14:03:18Z</time></trkpt><trkpt lat="50.3949240502" lon="10.2568408661"><ele>316.50</ele><time>2024-03-09T14:03:33Z</time></trkpt><trkpt lat="50.3948140796" lon="10.2571810037"><ele>314.12</ele><time>2024-03-09T14:03:53Z</time></trkpt><trkpt lat="50.3947630338" lon="10.2573763020"><ele>311.47</ele><time>2024-03-09T14:04:02Z</time></trkpt><trkpt lat="50.3946993314" lon="10.2576992568"><ele>307.93</ele><time>2024-03-09T14:04:18Z</time></trkpt><trkpt lat="50.3946729284" lon="10.2577633783"><ele>307.51</ele><time>2024-03-09T14:04:21Z</time></trkpt><trkpt lat="50.3945205454" lon="10.2580569126"><ele>305.36</ele><time>2024-03-09T14:04:39Z</time></trkpt><trkpt lat="50.3944245726" lon="10.2582301665"><ele>304.35</ele><time>2024-03-09T14:04:49Z</time></trkpt><trkpt lat="50.3943913803" lon="10.2582712378"><ele>303.98</ele><time>2024-03-09T14:04:52Z</time></trkpt><trkpt lat="50.3942373209" lon="10.2585863136"><ele>303.59</ele><time>2024-03-09T14:05:11Z</time></trkpt><trkpt lat="50.3941609617" lon="10.2588112000"><ele>303.38</ele><time>2024-03-09T14:05:25Z</time></trkpt><trkpt lat="50.3940593731" lon="10.2592162974"><ele>299.74</ele><time>2024-03-09T14:05:47Z</time></trkpt><trkpt lat="50.3939943295" lon="10.2593588736"><ele>297.78</ele><time>2024-03-09T14:05:56Z</time></trkpt><trkpt lat="50.3938962612" lon="10.2596430201"><ele>293.95</ele><time>2024-03-09T14:06:11Z</time></trkpt><trkpt lat="50.3938641585" lon="10.2597244922"><ele>293.77</ele><time>2024-03-09T14:06:17Z</time></trkpt><trkpt lat="50.3937636595" lon="10.2599946409"><ele>291.36</ele><time>2024-03-09T14:06:34Z</time></trkpt><trkpt lat="50.3937107697" lon="10.2601618599"><ele>290.52</ele><time>2024-03-09T14:06:43Z</time></trkpt><trkpt lat="50.3936984483" lon="10.2605629340"><ele>288.71</ele><time>2024-03-09T14:07:01Z</time></trkpt><trkpt lat="50.3937525116" lon="10.2609231882"><ele>287.89</ele><time>2024-03-09T14:07:18Z</time></trkpt><trkpt lat="50.3938623145" lon="10.2611400280"><ele>288.15</ele><time>2024-03-09T14:07:32Z</time></trkpt><trkpt lat="50.3940292820" lon="10.2612257749"><ele>288.66</ele><time>2024-03-09T14:07:46Z</time></trkpt><trkpt lat="50.3941193037" lon="10.2612376772"><ele>289.02</ele><time>2024-03-09T14:07:54Z</time></trkpt><trkpt lat="50.3942270949" lon="10.2611830272"><ele>289.48</ele><time>2024-03-09T14:08:02Z</time></trkpt><trkpt lat="50.3942775540" lon="10.2611436322"><ele>289.83</ele><time>2024-03-09T14:08:05Z</time></trkpt><trkpt lat="50.3943166137" lon="10.2611060813"><ele>289.82</ele><time>2024-03-09T14:08:08Z</time></trkpt><trkpt lat="50.3943696711" lon="10.2610677760"><ele>290.77</ele><time>2024-03-09T14:08:12Z</time></trkpt><trkpt lat="50.3944943100" lon="10.2608816978"><ele>291.89</ele><time>2024-03-09T14:08:27Z</time></trkpt><trkpt lat="50.3946241457" lon="10.2606269717"><ele>289.56</ele><time>2024-03-09T14:08:45Z</time></trkpt><trkpt lat="50.3947619442" lon="10.2603963856"><ele>288.15</ele><time>2024-03-09T14:09:03Z</time></trkpt><trkpt lat="50.3949327674" lon="10.2601660509"><ele>286.33</ele><time>2024-03-09T14:09:21Z</time></trkpt><trkpt lat="50.3951040097" lon="10.2600586787"><ele>281.39</ele><time>2024-03-09T14:09:42Z</time></trkpt><trkpt lat="50.3951992281" lon="10.2599761169"><ele>282.45</ele><time>2024-03-09T14:09:51Z</time></trkpt><trkpt lat="50.3956397809" lon="10.2598661464"><ele>286.50</ele><time>2024-03-09T14:10:41Z</time></trkpt><trkpt lat="50.3956566285" lon="10.2601707447"><ele>286.47</ele><time>2024-03-09T14:10:57Z</time></trkpt><trkpt lat="50.3956593946" lon="10.2601901907"><ele>286.47</ele><time>2024-03-09T14:10:58Z</time></trkpt><trkpt lat="50.3956361767" lon="10.2602908574"><ele>286.73</ele><time>2024-03-09T14:11:04Z</time></trkpt><trkpt lat="50.3956277948" lon="10.2603495307"><ele>286.85</ele><time>2024-03-09T14:11:07Z</time></trkpt><trkpt lat="50.3956008051" lon="10.2604568191"><ele>286.50</ele><time>2024-03-09T14:11:13Z</time></trkpt><trkpt lat="50.3955513518" lon="10.2607046720"><ele>287.76</ele><time>2024-03-09T14:11:27Z</time></trkpt><trkpt lat="50.3954611626" lon="10.2609863039"><ele>286.03</ele><time>2024-03-09T14:11:44Z</time></trkpt><trkpt lat="50.3953413852" lon="10.2612388507"><ele>283.79</ele><time>2024-03-09T14:12:01Z</time></trkpt><trkpt lat="50.3952870704" lon="10.2613432892"><ele>283.22</ele><time>2024-03-09T14:12:07Z</time></trkpt><trkpt lat="50.3951180074" lon="10.2616105042"><ele>281.42</ele><time>2024-03-09T14:12:25Z</time></trkpt><trkpt lat="50.3949912731" lon="10.2617749572"><ele>281.41</ele><time>2024-03-09T14:12:38Z</time></trkpt><trkpt lat="50.3948510438" lon="10.2620006818"><ele>281.87</ele><time>2024-03-09T14:12:56Z</time></trkpt><trkpt lat="50.3948186059" lon="10.2619928867"><ele>281.99</ele><time>2024-03-09T14:13:00Z</time></trkpt><trkpt lat="50.3947269917" lon="10.2620347962"><ele>280.62</ele><time>2024-03-09T14:13:08Z</time></trkpt><trkpt lat="50.3946689051" lon="10.2620608639"><ele>279.85</ele><time>2024-03-09T14:13:12Z</time></trkpt><trkpt lat="50.3944148496" lon="10.2622315194"><ele>281.76</ele><time>2024-03-09T14:13:32Z</time></trkpt><trkpt lat="50.3941990156" lon="10.2623415738"><ele>282.30</ele><time>2024-03-09T14:13:49Z</time></trkpt><trkpt lat="50.3941552620" lon="10.2624016721"><ele>281.59</ele><time>2024-03-09T14:13:54Z</time></trkpt><trkpt lat="50.3940871172" lon="10.2626629360"><ele>278.57</ele><time>2024-03-09T14:14:10Z</time></trkpt><trkpt lat="50.3940711915" lon="10.2627429832"><ele>278.22</ele><time>2024-03-09T14:14:14Z</time></trkpt><trkpt lat="50.3940999415" lon="10.2628602460"><ele>277.59</ele><time>2024-03-09T14:14:19Z</time></trkpt><trkpt lat="50.3942731116" lon="10.2630707156"><ele>276.65</ele><time>2024-03-09T14:14:36Z</time></trkpt><trkpt lat="50.3943378199" lon="10.2631112002"><ele>275.32</ele><time>2024-03-09T14:14:43Z</time></trkpt><trkpt lat="50.3944431804" lon="10.2631360106"><ele>278.39</ele><time>2024-03-09T14:14:56Z</time></trkpt></trkseg></trk></gpx>